Accueil
METAR-TAF:

METAR-TAF

Aéroports :

Aéroport de Kameshli

Al Qamishli, Syrie

latitude: 37-03N, longitude: 041-13E, altitude: 455 m

Observation

Le bulletin a été fait il y a 1 heure et 33 minutes, à 21:00 UTC
Vent 10 kt de nord-est
Température 23°C
Humidité 13%
Pression 1018 hPa
Visibilité: 8000 m
Quelques nuages à une hauteur de 2600 ft
Nuages épars à une hauteur de 10000 ft

METAR: OSKL 302100Z 05010KT 8000 FEW026 SCT100 23/M07 Q1018

Heure: 00:33 (22:33 UTC)


TAF: absent

Observations et prévisions météorologiques de plus de 4000 aéroports (messages METAR et TAF).

Les stations disponibles sont représentées par des disques jaunes et rouges sur la carte.

Passer la souris dessus pour voir le nom de la station.

Cliquer dessus pour voir les observations et prévisions météorologiques.

Pour changer de carte: cliquez sur les boutons verts avec une croix noire pour zoomer, sur le bouton vert avec un tiret pour effectuer un zoom arrière, ou sur les flèches vertes pour les cartes adjacentes.


METAR-TAF: